Time,TemperatureF,DewpointF,PressureIn,WindDirection,WindDirectionDegrees,WindSpeedMPH,WindSpeedGustMPH,Humidity,HourlyPrecipIn,Conditions,Clouds,dailyrainin,SoftwareType,DateUTC
2013-01-15 00:00:00,62.0,60.3,30.05,SSW,207,0.0,0.0,94,0.00,,---,0.00,VWS V14.01,2013-01-15 05:00:00,
2013-01-15 00:02:00,62.1,60.4,30.05,SSW,207,0.0,0.0,94,0.00,,---,0.00,VWS V14.01,2013-01-15 05:02:00,
2013-01-15 00:07:00,62.3,60.6,30.05,SSW,209,0.0,0.0,94,0.00,,---,0.00,VWS V14.01,2013-01-15 05:07:00,
2013-01-15 00:12:00,62.4,60.7,30.05,SSW,209,0.0,0.0,94,0.00,,---,0.00,VWS V14.01,2013-01-15 05:12:00,
2013-01-15 00:17:00,62.4,60.7,30.05,SW,216,0.0,0.0,94,0.00,,---,0.00,VWS V14.01,2013-01-15 05:17:00,
2013-01-15 00:22:00,62.1,60.1,30.05,NW,319,0.0,0.0,93,0.00,,---,0.00,VWS V14.01,2013-01-15 05:22:00,
2013-01-15 00:27:00,61.2,58.9,30.06,NE,44,0.0,0.0,92,0.00,,---,0.00,VWS V14.01,2013-01-15 05:27:00,
2013-01-15 00:30:00,62.1,60.1,30.04,SSW,207,0.0,0.0,93,0.00,,---,0.00,VWS V14.01,2013-01-15 05:30:00,
2013-01-15 00:32:00,59.9,57.6,30.06,North,355,0.0,0.0,92,0.00,,---,0.00,VWS V14.01,2013-01-15 05:32:00,
2013-01-15 00:37:00,58.9,56.0,30.06,North,360,0.0,0.0,90,0.00,,---,0.00,VWS V14.01,2013-01-15 05:37:00,
2013-01-15 00:42:00,58.0,55.1,30.08,North,5,0.0,0.0,90,0.00,,---,0.00,VWS V14.01,2013-01-15 05:42:00,
2013-01-15 00:47:00,57.0,53.8,30.08,NNE,22,0.0,0.0,89,0.00,,---,0.00,VWS V14.01,2013-01-15 05:47:00,
2013-01-15 00:52:00,56.3,53.1,30.08,NNE,22,0.0,0.0,89,0.00,,---,0.00,VWS V14.01,2013-01-15 05:52:00,
2013-01-15 00:57:00,55.9,52.7,30.09,North,355,0.0,0.0,89,0.00,,---,0.00,VWS V14.01,2013-01-15 05:57:00,
2013-01-15 01:00:00,62.4,60.7,30.05,SSW,209,0.0,0.0,94,0.00,,---,0.00,VWS V14.01,2013-01-15 06:00:00,
2013-01-15 01:02:00,55.3,52.1,30.09,NNE,13,0.0,0.0,89,0.00,,---,0.00,VWS V14.01,2013-01-15 06:02:00,
2013-01-15 01:07:00,54.8,51.6,30.09,NNE,18,0.0,0.0,89,0.00,,---,0.00,VWS V14.01,2013-01-15 06:07:00,
2013-01-15 01:12:00,54.4,51.2,30.09,NE,34,0.0,0.0,89,0.00,,---,0.00,VWS V14.01,2013-01-15 06:12:00,
2013-01-15 01:17:00,54.1,51.2,30.09,NE,51,0.0,0.0,90,0.00,,---,0.00,VWS V14.01,2013-01-15 06:17:00,
2013-01-15 01:22:00,53.6,50.7,30.09,ENE,58,0.0,0.0,90,0.00,,---,0.00,VWS V14.01,2013-01-15 06:22:00,
2013-01-15 01:27:00,53.5,50.6,30.09,NNE,15,0.0,0.0,90,0.00,,---,0.00,VWS V14.01,2013-01-15 06:27:00,
2013-01-15 01:30:00,58.0,55.1,30.08,SE,124,0.0,0.0,90,0.00,,---,0.00,VWS V14.01,2013-01-15 06:30:00,
2013-01-15 01:32:00,53.2,50.3,30.09,North,5,0.0,0.0,90,0.00,,---,0.00,VWS V14.01,2013-01-15 06:32:00,
2013-01-15 01:37:00,52.8,50.0,30.09,North,5,0.0,0.0,90,0.00,,---,0.00,VWS V14.01,2013-01-15 06:37:00,
2013-01-15 01:42:00,52.5,49.7,30.10,NE,38,0.0,0.0,90,0.00,,---,0.00,VWS V14.01,2013-01-15 06:42:00,
2013-01-15 01:47:00,52.2,49.7,30.10,NNW,342,0.0,0.0,91,0.00,,---,0.00,VWS V14.01,2013-01-15 06:47:00,
2013-01-15 01:52:00,51.9,49.4,30.10,North,350,0.0,0.0,91,0.00,,---,0.00,VWS V14.01,2013-01-15 06:52:00,
2013-01-15 01:57:00,51.4,48.9,30.11,NNE,16,0.0,0.0,91,0.00,,---,0.00,VWS V14.01,2013-01-15 06:57:00,
2013-01-15 02:00:00,54.4,51.2,30.09,NE,34,0.0,0.0,89,0.00,,---,0.00,VWS V14.01,2013-01-15 07:00:00,
2013-01-15 02:02:00,51.1,48.6,30.11,NNE,19,0.0,0.0,91,0.00,,---,0.00,VWS V14.01,2013-01-15 07:02:00,
2013-01-15 02:07:00,50.8,48.3,30.11,North,360,0.0,0.0,91,0.00,,---,0.00,VWS V14.01,2013-01-15 07:07:00,
2013-01-15 02:12:00,50.4,47.9,30.11,NE,34,0.0,0.0,91,0.00,,---,0.00,VWS V14.01,2013-01-15 07:12:00,
2013-01-15 02:17:00,49.9,47.4,30.11,NE,46,0.0,0.0,91,0.00,,---,0.00,VWS V14.01,2013-01-15 07:17:00,
2013-01-15 02:22:00,49.5,47.0,30.11,North,11,0.0,0.0,91,0.00,,---,0.00,VWS V14.01,2013-01-15 07:22:00,
2013-01-15 02:27:00,49.4,47.2,30.11,NNE,30,0.0,0.0,92,0.00,,---,0.00,VWS V14.01,2013-01-15 07:27:00,
2013-01-15 02:30:00,52.5,49.7,30.10,NE,38,0.0,0.0,90,0.00,,---,0.00,VWS V14.01,2013-01-15 07:30:00,
2013-01-15 02:32:00,49.1,46.9,30.11,ENE,58,0.0,0.0,92,0.00,,---,0.00,VWS V14.01,2013-01-15 07:32:00,
2013-01-15 02:37:00,48.9,46.7,30.11,NNE,28,0.0,0.0,92,0.00,,---,0.00,VWS V14.01,2013-01-15 07:37:00,
2013-01-15 02:42:00,48.8,46.6,30.12,NE,39,0.0,0.0,92,0.00,,---,0.00,VWS V14.01,2013-01-15 07:42:00,
2013-01-15 02:47:00,48.8,46.6,30.12,ENE,67,0.0,0.0,92,0.00,,---,0.00,VWS V14.01,2013-01-15 07:47:00,
2013-01-15 02:52:00,48.5,46.3,30.12,NE,42,0.0,0.0,92,0.00,,---,0.00,VWS V14.01,2013-01-15 07:52:00,
2013-01-15 03:00:00,50.4,47.9,30.11,North,9,0.0,0.0,91,0.00,,---,0.00,VWS V14.01,2013-01-15 08:00:00,
2013-01-15 03:30:00,48.8,46.6,30.12,NE,39,0.0,0.0,92,0.00,,---,0.00,VWS V14.01,2013-01-15 08:30:00,
2013-01-15 04:00:00,47.6,45.4,30.12,North,0,0.0,0.0,92,0.00,,---,0.00,VWS V14.01,2013-01-15 09:00:00,
2013-01-15 04:30:00,47.0,44.8,30.12,North,0,0.0,0.0,92,0.00,,---,0.00,VWS V14.01,2013-01-15 09:30:00,
2013-01-15 05:00:00,46.4,44.2,30.11,North,0,0.0,0.0,92,0.00,,---,0.00,VWS V14.01,2013-01-15 10:00:00,
2013-01-15 05:30:00,46.1,43.9,30.10,North,0,0.0,0.0,92,0.00,,---,0.00,VWS V14.01,2013-01-15 10:30:00,
2013-01-15 06:00:00,45.5,43.6,30.09,North,0,0.0,0.0,93,0.00,,---,0.00,VWS V14.01,2013-01-15 11:00:00,
2013-01-15 06:30:00,45.2,43.3,30.09,North,0,0.0,0.0,93,0.00,,---,0.00,VWS V14.01,2013-01-15 11:30:00,
2013-01-15 07:00:00,44.9,43.3,30.08,North,0,0.0,0.0,94,0.01,,---,0.01,VWS V14.01,2013-01-15 12:00:00,
2013-01-15 07:30:00,44.6,43.0,30.08,North,0,0.0,0.0,94,0.01,,---,0.01,VWS V14.01,2013-01-15 12:30:00,
2013-01-15 08:00:00,44.8,43.2,30.10,North,0,0.0,0.0,94,0.01,,---,0.01,VWS V14.01,2013-01-15 13:00:00,
2013-01-15 08:30:00,44.8,43.5,30.11,North,0,0.0,0.0,95,0.00,,---,0.01,VWS V14.01,2013-01-15 13:30:00,
2013-01-15 09:00:00,44.8,43.5,30.13,North,0,0.0,0.0,95,0.00,,---,0.01,VWS V14.01,2013-01-15 14:00:00,
2013-01-15 09:30:00,44.8,43.5,30.14,North,0,0.0,0.0,95,0.00,,---,0.01,VWS V14.01,2013-01-15 14:30:00,
2013-01-15 10:00:00,44.6,43.3,30.15,North,0,0.0,0.0,95,0.00,,---,0.01,VWS V14.01,2013-01-15 15:00:00,
2013-01-15 10:30:00,44.5,43.2,30.16,North,0,0.0,0.0,95,0.00,,---,0.01,VWS V14.01,2013-01-15 15:30:00,
2013-01-15 11:00:00,44.3,43.0,30.17,North,0,0.0,0.0,95,0.00,,---,0.01,VWS V14.01,2013-01-15 16:00:00,
2013-01-15 11:30:00,44.2,42.9,30.16,North,0,0.0,0.0,95,0.00,,---,0.01,VWS V14.01,2013-01-15 16:30:00,
2013-01-15 12:00:00,44.2,42.9,30.16,North,0,0.0,0.0,95,0.00,,---,0.01,VWS V14.01,2013-01-15 17:00:00,
2013-01-15 12:30:00,44.8,43.5,30.14,North,0,0.0,0.0,95,0.00,,---,0.01,VWS V14.01,2013-01-15 17:30:00,
2013-01-15 13:00:00,45.2,43.9,30.14,North,0,0.0,0.0,95,0.00,,---,0.01,VWS V14.01,2013-01-15 18:00:00,
2013-01-15 13:30:00,45.5,43.9,30.13,North,0,0.0,0.0,94,0.00,,---,0.01,VWS V14.01,2013-01-15 18:30:00,
2013-01-15 14:00:00,45.8,43.9,30.11,North,0,0.0,0.0,93,0.00,,---,0.01,VWS V14.01,2013-01-15 19:00:00,
2013-01-15 14:30:00,46.1,44.2,30.10,North,0,0.0,0.0,93,0.00,,---,0.01,VWS V14.01,2013-01-15 19:30:00,
2013-01-15 15:00:00,46.4,44.5,30.10,North,0,0.0,0.0,93,0.00,,---,0.01,VWS V14.01,2013-01-15 20:00:00,
2013-01-15 15:30:00,46.1,44.2,30.10,North,0,0.0,0.0,93,0.00,,---,0.01,VWS V14.01,2013-01-15 20:30:00,
2013-01-15 16:00:00,45.7,43.8,30.10,North,0,0.0,0.0,93,0.00,,---,0.01,VWS V14.01,2013-01-15 21:00:00,
2013-01-15 16:30:00,45.2,43.6,30.10,North,0,0.0,0.0,94,0.00,,---,0.01,VWS V14.01,2013-01-15 21:30:00,
2013-01-15 17:00:00,45.2,43.6,30.11,North,0,0.0,0.0,94,0.00,,---,0.01,VWS V14.01,2013-01-15 22:00:00,
2013-01-15 17:30:00,45.2,43.6,30.11,North,0,0.0,0.0,94,0.00,,---,0.01,VWS V14.01,2013-01-15 22:30:00,
2013-01-15 18:00:00,45.1,43.8,30.10,North,0,0.0,0.0,95,0.00,,---,0.01,VWS V14.01,2013-01-15 23:00:00,
2013-01-15 18:30:00,45.1,43.8,30.10,North,0,0.0,0.0,95,0.00,,---,0.01,VWS V14.01,2013-01-15 23:30:00,
2013-01-15 19:00:00,44.9,43.6,30.09,North,0,0.0,0.0,95,0.00,,---,0.01,VWS V14.01,2013-01-16 00:00:00,
2013-01-15 19:30:00,44.6,43.3,30.10,North,0,0.0,0.0,95,0.00,,---,0.01,VWS V14.01,2013-01-16 00:30:00,
2013-01-15 20:00:00,44.5,43.2,30.10,North,0,0.0,0.0,95,0.00,,---,0.01,VWS V14.01,2013-01-16 01:00:00,
2013-01-15 20:30:00,44.3,43.0,30.09,North,0,0.0,0.0,95,0.00,,---,0.01,VWS V14.01,2013-01-16 01:30:00,
2013-01-15 21:00:00,44.3,43.2,30.08,North,0,0.0,0.0,96,0.00,,---,0.01,VWS V14.01,2013-01-16 02:00:00,
2013-01-15 21:30:00,44.2,43.1,30.07,North,0,0.0,0.0,96,0.00,,---,0.01,VWS V14.01,2013-01-16 02:30:00,
2013-01-15 22:00:00,44.3,43.2,30.06,North,0,0.0,0.0,96,0.00,,---,0.01,VWS V14.01,2013-01-16 03:00:00,
2013-01-15 22:30:00,44.5,43.4,30.04,North,0,0.0,0.0,96,0.00,,---,0.01,VWS V14.01,2013-01-16 03:30:00,
2013-01-15 23:00:00,44.6,43.5,30.03,North,0,0.0,0.0,96,0.01,,---,0.02,VWS V14.01,2013-01-16 04:00:00,
2013-01-15 23:30:00,44.6,43.5,30.03,North,0,0.0,0.0,96,0.01,,---,0.02,VWS V14.01,2013-01-16 04:30:00,